KDNV/DNV METAR and TAF weather

Enter ICAO airport designator
Station Type Date Time Source
KDNV METAR 2021/07/30 21:55 UTC NOAA

KDNV 302155Z AUTO 02006KT 10SM CLR 24/16 A3010 RMK AO2 T02440156


Station Type Date Time Source
KDNV Decoded METAR 2021/07/30 21:55 UTC NOAA

Danville, Vermilion County Airport, IL, United States (KDNV) 40-11-58N 087-35-44W
Jul 30, 2021 - 05:55 PM EDT / 2021.07.30 2155 UTC
Wind: from the NNE (020 degrees) at 7 MPH (6 KT):0
Visibility: 10 mile(s):0
Sky conditions: clear
Temperature: 75.9 F (24.4 C)
Dew Point: 60.1 F (15.6 C)
Relative Humidity: 57%
Pressure (altimeter): 30.1 in. Hg (1019 hPa)
ob: KDNV 302155Z AUTO 02006KT 10SM CLR 24/16 A3010 RMK AO2 T02440156
cycle: 22

Station Type Date Time Source
KDNV TAF UTC NOAA

Error!

Example: see airport list